CheckWX is a tool to help pilots better visualize weather data.  It is not intended as a substitute for an official pre-flight weather briefing.

09:34:47 UTC

KJLN METAR
Joplin Regional Airport
Joplin, Missouri, USA
Current

42 mins ago

KJLN 180853Z AUTO 15005KT 10SM CLR 10/07 A2991 RMK AO2 SLP123 T01000072 50004
Observed
Oct-18 @ 08:53 UTC
Wind
  • 150° at 5 KTS
Visibility
10 SM
Flight Rules
VFR
Cloud Levels
  • Clear skies
Temperature
10°C / 50°F
Dewpoint
C / 45°F
Humidity
82%
Altimeter
29.91" Hg
Pressure
1012.92 hPa
Previous

2 hours ago

KJLN 180753Z AUTO 15007KT 10SM CLR 11/08 A2992 RMK AO2 SLP125 T01060078
Observed
Oct-18 @ 07:53 UTC
Wind
  • 150° at 7 KTS
Visibility
10 SM
Flight Rules
VFR
Cloud Levels
  • Clear skies
Temperature
11°C / 52°F
Dewpoint
C / 46°F
Humidity
82%
Altimeter
29.92" Hg
Pressure
1013.22 hPa
Previous

3 hours ago

KJLN 180653Z AUTO 17005KT 10SM CLR 11/07 A2991 RMK AO2 SLP123 T01060072
Observed
Oct-18 @ 06:53 UTC
Wind
  • 170° at 5 KTS
Visibility
10 SM
Flight Rules
VFR
Cloud Levels
  • Clear skies
Temperature
11°C / 52°F
Dewpoint
C / 45°F
Humidity
77%
Altimeter
29.91" Hg
Pressure
1012.92 hPa